sensor_id;sensor_type;location;lat;lon;timestamp;pressure;altitude;pressure_sealevel;temperature;humidity
6096;BME280;25081;42.698;23.298;2023-08-31T00:01:30;94711.06;;;19.94;59.09
6096;BME280;25081;42.698;23.298;2023-08-31T00:03:40;94706.02;;;20.07;58.90
6096;BME280;25081;42.698;23.298;2023-08-31T00:05:50;94709.02;;;20.05;58.63
6096;BME280;25081;42.698;23.298;2023-08-31T00:08:01;94708.45;;;20.08;58.48
6096;BME280;25081;42.698;23.298;2023-08-31T00:10:12;94709.87;;;20.03;58.67
6096;BME280;25081;42.698;23.298;2023-08-31T00:12:23;94702.14;;;19.94;59.12
6096;BME280;25081;42.698;23.298;2023-08-31T00:14:34;94708.85;;;19.99;58.96
6096;BME280;25081;42.698;23.298;2023-08-31T00:16:44;94714.22;;;20.01;58.90
6096;BME280;25081;42.698;23.298;2023-08-31T00:18:55;94711.01;;;19.99;59.17
6096;BME280;25081;42.698;23.298;2023-08-31T00:21:05;94705.34;;;19.98;59.22
6096;BME280;25081;42.698;23.298;2023-08-31T00:23:16;94705.14;;;19.92;59.13
6096;BME280;25081;42.698;23.298;2023-08-31T00:25:26;94707.84;;;19.92;59.42
6096;BME280;25081;42.698;23.298;2023-08-31T00:27:36;94710.59;;;19.90;59.46
6096;BME280;25081;42.698;23.298;2023-08-31T00:29:47;94711.06;;;19.94;59.14
6096;BME280;25081;42.698;23.298;2023-08-31T00:31:57;94711.39;;;19.90;59.31
6096;BME280;25081;42.698;23.298;2023-08-31T00:34:08;94714.16;;;19.85;59.54
6096;BME280;25081;42.698;23.298;2023-08-31T00:36:19;94722.86;;;19.82;59.75
6096;BME280;25081;42.698;23.298;2023-08-31T00:38:32;94727.00;;;19.75;60.04
6096;BME280;25081;42.698;23.298;2023-08-31T00:40:42;94718.67;;;19.71;60.25
6096;BME280;25081;42.698;23.298;2023-08-31T00:42:53;94730.59;;;19.67;60.47
6096;BME280;25081;42.698;23.298;2023-08-31T00:45:03;94724.92;;;19.66;60.65
6096;BME280;25081;42.698;23.298;2023-08-31T00:47:14;94732.78;;;19.65;60.81
6096;BME280;25081;42.698;23.298;2023-08-31T00:49:25;94739.07;;;19.61;60.90
6096;BME280;25081;42.698;23.298;2023-08-31T00:51:35;94736.63;;;19.62;61.10
6096;BME280;25081;42.698;23.298;2023-08-31T00:53:46;94738.02;;;19.59;61.15
6096;BME280;25081;42.698;23.298;2023-08-31T00:55:56;94737.73;;;19.58;61.53
6096;BME280;25081;42.698;23.298;2023-08-31T00:58:07;94737.42;;;19.62;61.36
6096;BME280;25081;42.698;23.298;2023-08-31T01:00:17;94735.02;;;19.58;61.65
6096;BME280;25081;42.698;23.298;2023-08-31T01:02:30;94731.84;;;19.51;61.77
6096;BME280;25081;42.698;23.298;2023-08-31T01:04:44;94733.56;;;19.42;62.26
6096;BME280;25081;42.698;23.298;2023-08-31T01:07:13;94729.25;;;19.41;62.38
6096;BME280;25081;42.698;23.298;2023-08-31T01:09:27;94741.61;;;19.47;62.29
6096;BME280;25081;42.698;23.298;2023-08-31T01:11:38;94735.98;;;19.43;62.44
6096;BME280;25081;42.698;23.298;2023-08-31T01:13:48;94744.34;;;19.44;62.51
6096;BME280;25081;42.698;23.298;2023-08-31T01:15:59;94744.13;;;19.41;62.68
6096;BME280;25081;42.698;23.298;2023-08-31T01:18:08;94743.83;;;19.42;62.75
6096;BME280;25081;42.698;23.298;2023-08-31T01:20:28;94738.68;;;19.43;62.94
6096;BME280;25081;42.698;23.298;2023-08-31T01:22:43;94739.20;;;19.45;62.93
6096;BME280;25081;42.698;23.298;2023-08-31T01:24:51;94745.88;;;19.53;62.62
6096;BME280;25081;42.698;23.298;2023-08-31T01:27:01;94746.14;;;19.54;62.54
6096;BME280;25081;42.698;23.298;2023-08-31T01:29:12;94739.92;;;19.56;62.48
6096;BME280;25081;42.698;23.298;2023-08-31T01:31:22;94736.97;;;19.53;62.58
6096;BME280;25081;42.698;23.298;2023-08-31T01:36:36;94735.66;;;19.48;62.92
6096;BME280;25081;42.698;23.298;2023-08-31T01:38:58;94737.04;;;19.45;63.06
6096;BME280;25081;42.698;23.298;2023-08-31T01:41:07;94739.23;;;19.43;63.05
6096;BME280;25081;42.698;23.298;2023-08-31T01:43:17;94738.39;;;19.45;63.23
6096;BME280;25081;42.698;23.298;2023-08-31T01:45:28;94739.30;;;19.35;63.53
6096;BME280;25081;42.698;23.298;2023-08-31T01:47:38;94741.23;;;19.32;63.62
6096;BME280;25081;42.698;23.298;2023-08-31T01:49:49;94739.89;;;19.30;63.91
6096;BME280;25081;42.698;23.298;2023-08-31T01:52:00;94741.81;;;19.27;63.92
6096;BME280;25081;42.698;23.298;2023-08-31T01:54:10;94743.75;;;19.24;64.06
6096;BME280;25081;42.698;23.298;2023-08-31T01:56:21;94747.84;;;19.21;64.18
6096;BME280;25081;42.698;23.298;2023-08-31T01:58:31;94745.14;;;19.19;64.32
6096;BME280;25081;42.698;23.298;2023-08-31T02:00:42;94747.87;;;19.16;64.36
6096;BME280;25081;42.698;23.298;2023-08-31T02:02:53;94746.03;;;19.11;64.61
6096;BME280;25081;42.698;23.298;2023-08-31T02:05:04;94740.08;;;19.12;64.70
6096;BME280;25081;42.698;23.298;2023-08-31T02:07:14;94748.48;;;19.08;64.77
6096;BME280;25081;42.698;23.298;2023-08-31T02:09:25;94753.14;;;19.02;64.74
6096;BME280;25081;42.698;23.298;2023-08-31T02:11:35;94752.66;;;18.95;64.90
6096;BME280;25081;42.698;23.298;2023-08-31T02:13:45;94757.22;;;18.97;64.74
6096;BME280;25081;42.698;23.298;2023-08-31T02:16:03;94755.07;;;18.97;64.79
6096;BME280;25081;42.698;23.298;2023-08-31T02:18:15;94759.92;;;18.97;64.77
6096;BME280;25081;42.698;23.298;2023-08-31T02:20:25;94753.23;;;18.90;64.96
6096;BME280;25081;42.698;23.298;2023-08-31T02:22:36;94758.09;;;18.90;65.17
6096;BME280;25081;42.698;23.298;2023-08-31T02:24:47;94754.84;;;18.91;65.17
6096;BME280;25081;42.698;23.298;2023-08-31T02:26:57;94759.20;;;18.86;65.42
6096;BME280;25081;42.698;23.298;2023-08-31T02:29:08;94761.10;;;18.86;65.52
6096;BME280;25081;42.698;23.298;2023-08-31T02:31:18;94753.83;;;18.81;65.50
6096;BME280;25081;42.698;23.298;2023-08-31T02:33:30;94758.22;;;18.75;66.13
6096;BME280;25081;42.698;23.298;2023-08-31T02:35:41;94758.77;;;18.72;66.20
6096;BME280;25081;42.698;23.298;2023-08-31T02:37:52;94756.38;;;18.68;66.48
6096;BME280;25081;42.698;23.298;2023-08-31T02:40:02;94750.20;;;18.65;66.35
6096;BME280;25081;42.698;23.298;2023-08-31T02:42:14;94760.16;;;18.64;66.07
6096;BME280;25081;42.698;23.298;2023-08-31T02:44:25;94758.81;;;18.64;66.44
6096;BME280;25081;42.698;23.298;2023-08-31T02:46:55;94751.80;;;18.63;66.51
6096;BME280;25081;42.698;23.298;2023-08-31T02:49:05;94758.30;;;18.65;65.97
6096;BME280;25081;42.698;23.298;2023-08-31T02:51:20;94765.56;;;18.62;65.89
6096;BME280;25081;42.698;23.298;2023-08-31T02:53:26;94761.51;;;18.62;66.17
6096;BME280;25081;42.698;23.298;2023-08-31T02:55:37;94762.11;;;18.56;66.45
6096;BME280;25081;42.698;23.298;2023-08-31T02:57:47;94762.63;;;18.58;66.40
6096;BME280;25081;42.698;23.298;2023-08-31T03:00:00;94772.05;;;18.63;66.01
6096;BME280;25081;42.698;23.298;2023-08-31T03:02:13;94775.30;;;18.60;65.84
6096;BME280;25081;42.698;23.298;2023-08-31T03:04:24;94780.95;;;18.61;65.73
6096;BME280;25081;42.698;23.298;2023-08-31T03:06:34;94782.05;;;18.60;65.71
6096;BME280;25081;42.698;23.298;2023-08-31T03:08:45;94783.42;;;18.57;65.84
6096;BME280;25081;42.698;23.298;2023-08-31T03:10:56;94787.78;;;18.53;66.00
6096;BME280;25081;42.698;23.298;2023-08-31T03:13:08;94788.30;;;18.55;65.58
6096;BME280;25081;42.698;23.298;2023-08-31T03:15:18;94786.14;;;18.55;65.25
6096;BME280;25081;42.698;23.298;2023-08-31T03:17:27;94784.75;;;18.60;64.76
6096;BME280;25081;42.698;23.298;2023-08-31T03:19:38;94786.09;;;18.60;64.82
6096;BME280;25081;42.698;23.298;2023-08-31T03:21:49;94788.02;;;18.57;65.11
6096;BME280;25081;42.698;23.298;2023-08-31T03:23:59;94792.39;;;18.48;65.32
6096;BME280;25081;42.698;23.298;2023-08-31T03:26:29;94789.65;;;18.55;65.46
6096;BME280;25081;42.698;23.298;2023-08-31T03:28:39;94785.08;;;18.51;65.14
6096;BME280;25081;42.698;23.298;2023-08-31T03:30:56;94787.53;;;18.47;65.54
6096;BME280;25081;42.698;23.298;2023-08-31T03:33:06;94787.00;;;18.43;65.24
6096;BME280;25081;42.698;23.298;2023-08-31T03:35:28;94787.55;;;18.42;65.87
6096;BME280;25081;42.698;23.298;2023-08-31T03:37:38;94785.45;;;18.31;66.05
6096;BME280;25081;42.698;23.298;2023-08-31T03:39:49;94792.75;;;18.31;66.33
6096;BME280;25081;42.698;23.298;2023-08-31T03:41:59;94798.16;;;18.34;66.34
6096;BME280;25081;42.698;23.298;2023-08-31T03:44:10;94797.31;;;18.33;66.55
6096;BME280;25081;42.698;23.298;2023-08-31T03:46:22;94806.02;;;18.25;66.67
6096;BME280;25081;42.698;23.298;2023-08-31T03:48:40;94800.36;;;18.24;66.78
6096;BME280;25081;42.698;23.298;2023-08-31T03:50:51;94804.41;;;18.24;66.90
6096;BME280;25081;42.698;23.298;2023-08-31T03:53:01;94810.34;;;18.21;66.61
6096;BME280;25081;42.698;23.298;2023-08-31T03:55:15;94795.78;;;18.19;66.36
6096;BME280;25081;42.698;23.298;2023-08-31T03:57:22;94817.03;;;18.31;66.66
6096;BME280;25081;42.698;23.298;2023-08-31T03:59:35;94810.31;;;18.28;66.41
6096;BME280;25081;42.698;23.298;2023-08-31T04:01:46;94813.00;;;18.34;66.17
6096;BME280;25081;42.698;23.298;2023-08-31T04:03:57;94813.25;;;18.32;66.28
6096;BME280;25081;42.698;23.298;2023-08-31T04:06:07;94819.19;;;18.31;66.36
6096;BME280;25081;42.698;23.298;2023-08-31T04:08:18;94828.65;;;18.34;66.47
6096;BME280;25081;42.698;23.298;2023-08-31T04:10:28;94838.88;;;18.37;66.05
6096;BME280;25081;42.698;23.298;2023-08-31T04:12:39;94852.88;;;18.42;65.80
6096;BME280;25081;42.698;23.298;2023-08-31T04:14:49;94856.67;;;18.41;65.80
6096;BME280;25081;42.698;23.298;2023-08-31T04:17:00;94862.33;;;18.42;66.03
6096;BME280;25081;42.698;23.298;2023-08-31T04:19:10;94861.83;;;18.37;67.67
6096;BME280;25081;42.698;23.298;2023-08-31T04:21:20;94855.64;;;18.34;68.53
6096;BME280;25081;42.698;23.298;2023-08-31T04:23:34;94865.34;;;18.35;68.88
6096;BME280;25081;42.698;23.298;2023-08-31T04:26:10;94871.50;;;18.46;68.65
6096;BME280;25081;42.698;23.298;2023-08-31T04:28:20;94871.79;;;18.44;68.77
6096;BME280;25081;42.698;23.298;2023-08-31T04:30:33;94871.81;;;18.37;69.04
6096;BME280;25081;42.698;23.298;2023-08-31T04:32:44;94871.39;;;18.01;70.36
6096;BME280;25081;42.698;23.298;2023-08-31T04:34:55;94874.64;;;17.93;70.93
6096;BME280;25081;42.698;23.298;2023-08-31T04:37:06;94879.75;;;18.02;70.82
6096;BME280;25081;42.698;23.298;2023-08-31T04:39:16;94871.67;;;18.05;70.72
6096;BME280;25081;42.698;23.298;2023-08-31T04:41:27;94875.38;;;18.24;70.24
6096;BME280;25081;42.698;23.298;2023-08-31T04:43:37;94877.94;;;18.52;69.23
6096;BME280;25081;42.698;23.298;2023-08-31T04:45:47;94880.26;;;18.79;68.27
6096;BME280;25081;42.698;23.298;2023-08-31T04:48:01;94881.07;;;18.82;67.98
6096;BME280;25081;42.698;23.298;2023-08-31T04:50:13;94879.33;;;18.99;67.43
6096;BME280;25081;42.698;23.298;2023-08-31T04:52:23;94889.47;;;19.18;66.88
6096;BME280;25081;42.698;23.298;2023-08-31T04:54:34;94891.86;;;19.24;66.43
6096;BME280;25081;42.698;23.298;2023-08-31T04:56:44;94887.00;;;19.24;66.19
6096;BME280;25081;42.698;23.298;2023-08-31T04:58:55;94880.39;;;19.37;65.81
6096;BME280;25081;42.698;23.298;2023-08-31T05:01:06;94876.52;;;20.07;63.93
6096;BME280;25081;42.698;23.298;2023-08-31T05:03:16;94874.17;;;20.91;61.26
6096;BME280;25081;42.698;23.298;2023-08-31T05:05:26;94874.07;;;21.98;58.33
6096;BME280;25081;42.698;23.298;2023-08-31T05:07:37;94876.01;;;22.94;55.11
6096;BME280;25081;42.698;23.298;2023-08-31T05:09:48;94872.51;;;23.63;53.03
6096;BME280;25081;42.698;23.298;2023-08-31T05:11:59;94876.42;;;24.73;49.65
6096;BME280;25081;42.698;23.298;2023-08-31T05:14:09;94874.44;;;25.22;47.87
6096;BME280;25081;42.698;23.298;2023-08-31T05:16:20;94878.22;;;25.49;47.11
6096;BME280;25081;42.698;23.298;2023-08-31T05:18:30;94877.80;;;25.88;45.30
6096;BME280;25081;42.698;23.298;2023-08-31T05:20:44;94879.86;;;26.23;44.76
6096;BME280;25081;42.698;23.298;2023-08-31T05:23:04;94882.75;;;26.27;44.86
6096;BME280;25081;42.698;23.298;2023-08-31T05:25:18;94880.89;;;26.24;44.80
6096;BME280;25081;42.698;23.298;2023-08-31T05:27:28;94876.89;;;26.22;44.83
6096;BME280;25081;42.698;23.298;2023-08-31T05:29:39;94875.55;;;26.60;43.44
6096;BME280;25081;42.698;23.298;2023-08-31T05:31:49;94876.20;;;26.34;43.33
6096;BME280;25081;42.698;23.298;2023-08-31T05:34:00;94877.92;;;26.56;42.31
6096;BME280;25081;42.698;23.298;2023-08-31T05:36:10;94875.78;;;26.14;43.41
6096;BME280;25081;42.698;23.298;2023-08-31T05:38:21;94874.33;;;26.49;42.57
6096;BME280;25081;42.698;23.298;2023-08-31T05:40:31;94869.99;;;27.22;40.46
6096;BME280;25081;42.698;23.298;2023-08-31T05:42:42;94864.69;;;28.18;38.59
6096;BME280;25081;42.698;23.298;2023-08-31T05:44:53;94869.37;;;28.24;38.15
6096;BME280;25081;42.698;23.298;2023-08-31T05:47:09;94871.41;;;28.66;37.58
6096;BME280;25081;42.698;23.298;2023-08-31T05:49:19;94876.96;;;27.25;39.98
6096;BME280;25081;42.698;23.298;2023-08-31T05:51:33;94869.10;;;26.94;41.40
6096;BME280;25081;42.698;23.298;2023-08-31T05:53:40;94867.33;;;27.19;39.88
6096;BME280;25081;42.698;23.298;2023-08-31T05:55:51;94866.03;;;26.96;40.76
6096;BME280;25081;42.698;23.298;2023-08-31T05:58:02;94864.89;;;26.52;40.93
6096;BME280;25081;42.698;23.298;2023-08-31T06:00:14;94867.36;;;26.45;41.66
6096;BME280;25081;42.698;23.298;2023-08-31T06:02:25;94861.78;;;26.63;40.80
6096;BME280;25081;42.698;23.298;2023-08-31T06:04:36;94873.76;;;26.49;41.46
6096;BME280;25081;42.698;23.298;2023-08-31T06:06:46;94869.56;;;26.81;40.64
6096;BME280;25081;42.698;23.298;2023-08-31T06:09:05;94879.27;;;26.41;41.80
6096;BME280;25081;42.698;23.298;2023-08-31T06:11:16;94888.41;;;25.20;44.63
6096;BME280;25081;42.698;23.298;2023-08-31T06:13:26;94895.90;;;23.87;48.39
6096;BME280;25081;42.698;23.298;2023-08-31T06:15:37;94889.20;;;24.04;48.52
6096;BME280;25081;42.698;23.298;2023-08-31T06:17:48;94894.00;;;25.06;46.13
6096;BME280;25081;42.698;23.298;2023-08-31T06:19:58;94899.94;;;26.44;42.89
6096;BME280;25081;42.698;23.298;2023-08-31T06:22:09;94893.63;;;26.97;41.45
6096;BME280;25081;42.698;23.298;2023-08-31T06:24:20;94892.77;;;26.90;41.44
6096;BME280;25081;42.698;23.298;2023-08-31T06:26:30;94903.55;;;27.46;40.86
6096;BME280;25081;42.698;23.298;2023-08-31T06:28:41;94905.30;;;27.15;40.94
6096;BME280;25081;42.698;23.298;2023-08-31T06:30:51;94901.55;;;27.34;40.55
6096;BME280;25081;42.698;23.298;2023-08-31T06:33:02;94906.42;;;26.84;41.05
6096;BME280;25081;42.698;23.298;2023-08-31T06:35:13;94905.55;;;27.36;40.53
6096;BME280;25081;42.698;23.298;2023-08-31T06:37:23;94911.19;;;28.78;37.36
6096;BME280;25081;42.698;23.298;2023-08-31T06:39:34;94908.63;;;29.41;36.23
6096;BME280;25081;42.698;23.298;2023-08-31T06:41:44;94919.44;;;30.14;34.88
6096;BME280;25081;42.698;23.298;2023-08-31T06:43:55;94918.45;;;30.66;33.54
6096;BME280;25081;42.698;23.298;2023-08-31T06:46:06;94916.32;;;29.29;35.34
6096;BME280;25081;42.698;23.298;2023-08-31T06:48:16;94918.23;;;28.55;37.15
6096;BME280;25081;42.698;23.298;2023-08-31T06:50:27;94922.32;;;30.11;34.74
6096;BME280;25081;42.698;23.298;2023-08-31T06:52:37;94920.27;;;30.68;33.19
6096;BME280;25081;42.698;23.298;2023-08-31T06:54:48;94919.16;;;31.10;32.86
6096;BME280;25081;42.698;23.298;2023-08-31T06:56:58;94917.52;;;31.41;32.19
6096;BME280;25081;42.698;23.298;2023-08-31T06:59:09;94916.44;;;31.55;32.11
6096;BME280;25081;42.698;23.298;2023-08-31T07:01:19;94917.66;;;30.65;33.69
6096;BME280;25081;42.698;23.298;2023-08-31T07:03:30;94921.88;;;31.00;33.22
6096;BME280;25081;42.698;23.298;2023-08-31T07:05:43;94916.61;;;31.72;32.05
6096;BME280;25081;42.698;23.298;2023-08-31T07:07:54;94913.30;;;31.82;31.84
6096;BME280;25081;42.698;23.298;2023-08-31T07:10:09;94918.45;;;32.12;31.15
6096;BME280;25081;42.698;23.298;2023-08-31T07:12:22;94913.70;;;33.20;29.08
6096;BME280;25081;42.698;23.298;2023-08-31T07:14:32;94919.13;;;32.06;30.91
6096;BME280;25081;42.698;23.298;2023-08-31T07:16:43;94919.78;;;33.07;28.62
6096;BME280;25081;42.698;23.298;2023-08-31T07:18:53;94917.52;;;33.39;28.52
6096;BME280;25081;42.698;23.298;2023-08-31T07:21:04;94914.59;;;33.84;27.69
6096;BME280;25081;42.698;23.298;2023-08-31T07:23:14;94919.41;;;32.30;29.94
6096;BME280;25081;42.698;23.298;2023-08-31T07:25:25;94917.72;;;33.26;28.16
6096;BME280;25081;42.698;23.298;2023-08-31T07:27:35;94916.49;;;33.90;27.32
6096;BME280;25081;42.698;23.298;2023-08-31T07:29:46;94920.53;;;34.47;26.60
6096;BME280;25081;42.698;23.298;2023-08-31T07:31:56;94921.53;;;34.68;26.27
6096;BME280;25081;42.698;23.298;2023-08-31T07:34:07;94923.94;;;35.42;25.49
6096;BME280;25081;42.698;23.298;2023-08-31T07:36:18;94921.03;;;35.51;25.12
6096;BME280;25081;42.698;23.298;2023-08-31T07:38:29;94931.31;;;34.96;25.74
6096;BME280;25081;42.698;23.298;2023-08-31T07:40:39;94925.84;;;33.82;27.35
6096;BME280;25081;42.698;23.298;2023-08-31T07:42:49;94926.97;;;33.11;28.21
6096;BME280;25081;42.698;23.298;2023-08-31T07:45:00;94927.27;;;33.99;27.17
6096;BME280;25081;42.698;23.298;2023-08-31T07:49:29;94922.59;;;32.03;29.84
6096;BME280;25081;42.698;23.298;2023-08-31T07:51:42;94929.32;;;32.77;29.82
6096;BME280;25081;42.698;23.298;2023-08-31T07:53:52;94930.66;;;34.52;26.19
6096;BME280;25081;42.698;23.298;2023-08-31T07:56:03;94934.86;;;34.76;25.70
6096;BME280;25081;42.698;23.298;2023-08-31T07:58:14;94925.87;;;35.38;24.57
6096;BME280;25081;42.698;23.298;2023-08-31T08:00:25;94929.65;;;35.63;24.34
6096;BME280;25081;42.698;23.298;2023-08-31T08:02:35;94926.11;;;36.04;23.62
6096;BME280;25081;42.698;23.298;2023-08-31T08:04:47;94920.60;;;35.80;24.16
6096;BME280;25081;42.698;23.298;2023-08-31T08:06:58;94921.97;;;35.73;24.73
6096;BME280;25081;42.698;23.298;2023-08-31T08:09:08;94927.28;;;36.52;23.29
6096;BME280;25081;42.698;23.298;2023-08-31T08:11:19;94921.31;;;35.94;22.72
6096;BME280;25081;42.698;23.298;2023-08-31T08:13:31;94926.58;;;35.51;22.98
6096;BME280;25081;42.698;23.298;2023-08-31T08:15:41;94920.56;;;36.60;22.13
6096;BME280;25081;42.698;23.298;2023-08-31T08:17:52;94922.36;;;36.73;22.57
6096;BME280;25081;42.698;23.298;2023-08-31T08:20:04;94926.78;;;36.22;23.12
6096;BME280;25081;42.698;23.298;2023-08-31T08:22:14;94926.34;;;35.78;23.53
6096;BME280;25081;42.698;23.298;2023-08-31T08:24:26;94927.30;;;36.66;22.64
6096;BME280;25081;42.698;23.298;2023-08-31T08:26:37;94925.78;;;37.05;21.72
6096;BME280;25081;42.698;23.298;2023-08-31T08:28:48;94916.17;;;35.65;23.04
6096;BME280;25081;42.698;23.298;2023-08-31T08:31:02;94919.20;;;36.19;22.63
6096;BME280;25081;42.698;23.298;2023-08-31T08:33:13;94933.63;;;35.69;23.18
6096;BME280;25081;42.698;23.298;2023-08-31T08:35:23;94916.56;;;36.54;20.84
6096;BME280;25081;42.698;23.298;2023-08-31T08:37:34;94914.98;;;36.53;20.56
6096;BME280;25081;42.698;23.298;2023-08-31T08:39:47;94909.34;;;35.87;20.89
6096;BME280;25081;42.698;23.298;2023-08-31T08:41:56;94915.09;;;35.49;21.05
6096;BME280;25081;42.698;23.298;2023-08-31T08:44:07;94921.81;;;34.97;21.73
6096;BME280;25081;42.698;23.298;2023-08-31T08:46:17;94922.09;;;34.14;22.75
6096;BME280;25081;42.698;23.298;2023-08-31T08:48:28;94923.72;;;34.35;22.66
6096;BME280;25081;42.698;23.298;2023-08-31T08:50:38;94916.31;;;35.52;21.43
6096;BME280;25081;42.698;23.298;2023-08-31T08:52:49;94916.27;;;35.48;20.47
6096;BME280;25081;42.698;23.298;2023-08-31T08:54:59;94819.41;;;34.06;20.94
6096;BME280;25081;42.698;23.298;2023-08-31T08:57:10;94915.04;;;34.54;20.69
6096;BME280;25081;42.698;23.298;2023-08-31T08:59:25;94917.50;;;35.89;20.43
6096;BME280;25081;42.698;23.298;2023-08-31T09:01:37;94922.06;;;35.53;20.37
6096;BME280;25081;42.698;23.298;2023-08-31T09:03:48;94926.38;;;34.58;21.12
6096;BME280;25081;42.698;23.298;2023-08-31T09:05:59;94918.48;;;34.60;20.95
6096;BME280;25081;42.698;23.298;2023-08-31T09:08:11;94929.84;;;34.48;20.92
6096;BME280;25081;42.698;23.298;2023-08-31T09:10:22;94928.20;;;34.27;21.78
6096;BME280;25081;42.698;23.298;2023-08-31T09:12:37;94921.04;;;35.00;21.31
6096;BME280;25081;42.698;23.298;2023-08-31T09:14:59;94921.45;;;34.61;21.81
6096;BME280;25081;42.698;23.298;2023-08-31T09:17:09;94924.87;;;33.84;22.49
6096;BME280;25081;42.698;23.298;2023-08-31T09:19:21;94919.67;;;33.92;22.71
6096;BME280;25081;42.698;23.298;2023-08-31T09:21:37;94920.92;;;34.65;22.20
6096;BME280;25081;42.698;23.298;2023-08-31T09:23:56;94915.36;;;33.51;23.34
6096;BME280;25081;42.698;23.298;2023-08-31T09:26:07;94918.41;;;34.03;23.49
6096;BME280;25081;42.698;23.298;2023-08-31T09:28:18;94912.02;;;35.69;21.54
6096;BME280;25081;42.698;23.298;2023-08-31T09:30:35;94911.08;;;35.74;20.95
6096;BME280;25081;42.698;23.298;2023-08-31T09:32:47;94915.91;;;35.02;21.68
6096;BME280;25081;42.698;23.298;2023-08-31T09:34:58;94915.00;;;36.04;20.91
6096;BME280;25081;42.698;23.298;2023-08-31T09:37:09;94914.64;;;36.17;20.49
6096;BME280;25081;42.698;23.298;2023-08-31T09:39:19;94924.69;;;35.63;21.19
6096;BME280;25081;42.698;23.298;2023-08-31T09:41:30;94920.66;;;35.29;21.33
6096;BME280;25081;42.698;23.298;2023-08-31T09:43:41;94907.92;;;37.09;19.52
6096;BME280;25081;42.698;23.298;2023-08-31T09:45:51;94911.03;;;35.71;20.83
6096;BME280;25081;42.698;23.298;2023-08-31T09:48:02;94911.12;;;34.04;22.57
6096;BME280;25081;42.698;23.298;2023-08-31T09:50:13;94915.15;;;32.55;24.56
6096;BME280;25081;42.698;23.298;2023-08-31T09:52:23;94909.73;;;33.08;24.39
6096;BME280;25081;42.698;23.298;2023-08-31T09:54:34;94915.52;;;33.92;23.99
6096;BME280;25081;42.698;23.298;2023-08-31T09:56:45;94914.53;;;34.07;23.11
6096;BME280;25081;42.698;23.298;2023-08-31T09:58:55;94918.50;;;34.43;21.65
6096;BME280;25081;42.698;23.298;2023-08-31T10:01:06;94914.14;;;35.55;19.91
6096;BME280;25081;42.698;23.298;2023-08-31T10:03:16;94909.30;;;34.93;20.25
6096;BME280;25081;42.698;23.298;2023-08-31T10:05:26;94916.75;;;35.34;20.01
6096;BME280;25081;42.698;23.298;2023-08-31T10:07:37;94911.08;;;35.78;19.55
6096;BME280;25081;42.698;23.298;2023-08-31T10:09:47;94907.59;;;35.88;19.46
6096;BME280;25081;42.698;23.298;2023-08-31T10:11:58;94913.00;;;35.36;19.57
6096;BME280;25081;42.698;23.298;2023-08-31T10:14:08;94911.00;;;35.05;19.90
6096;BME280;25081;42.698;23.298;2023-08-31T10:16:19;94893.28;;;35.86;18.45
6096;BME280;25081;42.698;23.298;2023-08-31T10:18:29;94898.47;;;35.88;18.92
6096;BME280;25081;42.698;23.298;2023-08-31T10:20:42;94899.41;;;36.27;18.78
6096;BME280;25081;42.698;23.298;2023-08-31T10:22:52;94898.03;;;35.44;19.14
6096;BME280;25081;42.698;23.298;2023-08-31T10:25:03;94896.48;;;34.78;19.34
6096;BME280;25081;42.698;23.298;2023-08-31T10:27:20;94894.19;;;34.87;19.80
6096;BME280;25081;42.698;23.298;2023-08-31T10:29:32;94897.15;;;34.85;19.65
6096;BME280;25081;42.698;23.298;2023-08-31T10:31:46;94895.63;;;34.33;19.95
6096;BME280;25081;42.698;23.298;2023-08-31T10:33:57;94898.38;;;32.54;22.48
6096;BME280;25081;42.698;23.298;2023-08-31T10:36:11;94903.66;;;31.27;24.20
6096;BME280;25081;42.698;23.298;2023-08-31T10:38:29;94910.12;;;31.45;24.35
6096;BME280;25081;42.698;23.298;2023-08-31T10:40:38;94908.11;;;30.85;25.09
6096;BME280;25081;42.698;23.298;2023-08-31T10:42:50;94916.61;;;30.64;25.58
6096;BME280;25081;42.698;23.298;2023-08-31T10:45:07;94915.66;;;30.34;26.06
6096;BME280;25081;42.698;23.298;2023-08-31T10:47:18;94920.36;;;30.87;25.92
6096;BME280;25081;42.698;23.298;2023-08-31T10:49:28;94913.77;;;31.08;25.76
6096;BME280;25081;42.698;23.298;2023-08-31T10:51:39;94915.73;;;31.58;25.33
6096;BME280;25081;42.698;23.298;2023-08-31T10:53:49;94913.91;;;31.46;24.74
6096;BME280;25081;42.698;23.298;2023-08-31T10:56:00;94916.80;;;31.53;25.32
6096;BME280;25081;42.698;23.298;2023-08-31T10:58:12;94919.69;;;32.44;24.39
6096;BME280;25081;42.698;23.298;2023-08-31T11:00:51;94920.77;;;32.39;24.56
6096;BME280;25081;42.698;23.298;2023-08-31T11:03:05;94921.88;;;32.06;25.18
6096;BME280;25081;42.698;23.298;2023-08-31T11:05:16;94912.02;;;31.85;24.98
6096;BME280;25081;42.698;23.298;2023-08-31T11:07:27;94919.37;;;31.72;25.65
6096;BME280;25081;42.698;23.298;2023-08-31T11:09:37;94915.70;;;31.83;25.51
6096;BME280;25081;42.698;23.298;2023-08-31T11:11:48;94920.98;;;31.28;25.99
6096;BME280;25081;42.698;23.298;2023-08-31T11:13:59;94921.68;;;30.62;27.03
6096;BME280;25081;42.698;23.298;2023-08-31T11:16:09;94921.26;;;30.75;27.02
6096;BME280;25081;42.698;23.298;2023-08-31T11:18:21;94926.80;;;30.85;26.75
6096;BME280;25081;42.698;23.298;2023-08-31T11:20:31;94926.27;;;30.95;26.55
6096;BME280;25081;42.698;23.298;2023-08-31T11:22:43;94922.26;;;31.24;26.67
6096;BME280;25081;42.698;23.298;2023-08-31T11:24:53;94920.88;;;31.75;25.76
6096;BME280;25081;42.698;23.298;2023-08-31T11:27:06;94920.54;;;31.36;26.24
6096;BME280;25081;42.698;23.298;2023-08-31T11:29:14;94929.30;;;30.09;27.17
6096;BME280;25081;42.698;23.298;2023-08-31T11:31:25;94928.65;;;29.59;28.52
6096;BME280;25081;42.698;23.298;2023-08-31T11:33:36;94930.15;;;29.63;28.18
6096;BME280;25081;42.698;23.298;2023-08-31T11:35:46;94935.54;;;29.93;27.78
6096;BME280;25081;42.698;23.298;2023-08-31T11:37:57;94932.94;;;29.79;27.38
6096;BME280;25081;42.698;23.298;2023-08-31T11:40:10;94931.11;;;29.83;27.57
6096;BME280;25081;42.698;23.298;2023-08-31T11:42:20;94927.98;;;29.50;28.67